createdAt,value
2018-03-17T00:00:06.488Z,62.68
2018-03-17T00:02:34.575Z,62.94
2018-03-17T00:05:03.299Z,62.33
2018-03-17T00:07:31.700Z,64.52
2018-03-17T00:10:00.060Z,63.46
2018-03-17T00:12:28.641Z,64.69
2018-03-17T00:14:57.048Z,63.84
2018-03-17T00:17:25.440Z,64.69
2018-03-17T00:19:54.606Z,64.93
2018-03-17T00:22:22.990Z,64.54
2018-03-17T00:24:51.376Z,63.82
2018-03-17T00:27:19.821Z,64.55
2018-03-17T00:29:48.275Z,65.38
2018-03-17T00:32:16.657Z,63.89
2018-03-17T00:34:45.060Z,64.79
2018-03-17T00:37:13.481Z,63.96
2018-03-17T00:39:41.836Z,64.03
2018-03-17T00:42:10.257Z,63.18
2018-03-17T00:44:38.677Z,63.64
2018-03-17T00:47:07.088Z,63.74
2018-03-17T00:49:35.739Z,64.03
2018-03-17T00:52:04.125Z,63.63
2018-03-17T00:54:32.515Z,63.88
2018-03-17T00:57:01.176Z,65.23
2018-03-17T00:59:29.595Z,65.01
2018-03-17T01:01:57.953Z,65.43
2018-03-17T01:04:26.815Z,65.60
2018-03-17T01:06:55.213Z,66.27
2018-03-17T01:09:23.581Z,65.61
2018-03-17T01:11:51.993Z,65.10
2018-03-17T01:14:20.395Z,65.79
2018-03-17T01:16:48.869Z,65.06
2018-03-17T01:19:17.242Z,64.95
2018-03-17T01:21:45.641Z,65.17
2018-03-17T01:24:14.082Z,65.29
2018-03-17T01:26:42.457Z,64.94
2018-03-17T01:29:10.895Z,64.57
2018-03-17T01:31:39.329Z,64.34
2018-03-17T01:34:07.771Z,63.98
2018-03-17T01:36:36.184Z,63.37
2018-03-17T01:39:04.637Z,63.98
2018-03-17T01:41:33.020Z,64.33
2018-03-17T01:44:01.420Z,65.31
2018-03-17T01:46:29.842Z,65.32
2018-03-17T01:48:58.249Z,65.58
2018-03-17T01:51:26.664Z,66.24
2018-03-17T01:54:07.000Z,64.37
2018-03-17T01:56:35.396Z,63.79
2018-03-17T01:59:03.816Z,64.03
2018-03-17T02:01:32.169Z,63.15
2018-03-17T02:04:00.633Z,63.19
2018-03-17T02:06:29.034Z,63.06
2018-03-17T02:08:57.430Z,62.82
2018-03-17T02:11:25.803Z,62.78
2018-03-17T02:13:54.196Z,62.47
2018-03-17T02:16:22.592Z,62.13
2018-03-17T02:18:51.003Z,61.16
2018-03-17T02:21:19.380Z,61.04
2018-03-17T02:23:47.805Z,61.28
2018-03-17T02:26:16.185Z,61.13
2018-03-17T02:28:44.845Z,61.22
2018-03-17T02:31:13.283Z,62.02
2018-03-17T02:33:41.713Z,60.90
2018-03-17T02:36:10.092Z,60.83
2018-03-17T02:38:38.549Z,60.87
2018-03-17T02:41:06.923Z,62.01
2018-03-17T02:43:35.358Z,63.69
2018-03-17T02:46:03.793Z,62.63
2018-03-17T02:48:32.207Z,61.50
2018-03-17T02:51:00.672Z,62.24
2018-03-17T02:53:29.073Z,62.63
2018-03-17T02:55:57.441Z,63.26
2018-03-17T02:58:25.862Z,63.29
2018-03-17T03:00:54.246Z,63.02
2018-03-17T03:03:22.656Z,62.66
2018-03-17T03:05:51.071Z,62.76
2018-03-17T03:08:19.452Z,62.69
2018-03-17T03:10:47.888Z,63.27
2018-03-17T03:13:16.329Z,63.74
2018-03-17T03:15:44.736Z,64.99
2018-03-17T03:18:13.124Z,64.61
2018-03-17T03:20:41.504Z,63.97
2018-03-17T03:23:09.915Z,64.14
2018-03-17T03:25:38.283Z,63.73
2018-03-17T03:28:06.724Z,64.40
2018-03-17T03:30:35.115Z,64.39
2018-03-17T03:33:03.540Z,63.88
2018-03-17T03:35:31.950Z,64.98
2018-03-17T03:38:00.313Z,65.07
2018-03-17T03:40:28.740Z,64.44
2018-03-17T03:42:57.148Z,64.98
2018-03-17T03:45:25.515Z,65.38
2018-03-17T03:47:53.932Z,65.71
2018-03-17T03:50:22.367Z,66.01
2018-03-17T03:52:50.768Z,66.75
2018-03-17T03:55:19.148Z,67.24
2018-03-17T03:57:47.584Z,67.46
2018-03-17T04:00:16.156Z,68.28
2018-03-17T04:02:44.603Z,69.67
2018-03-17T04:05:13.013Z,69.09
2018-03-17T04:07:41.455Z,67.71
2018-03-17T04:10:09.847Z,68.68
2018-03-17T04:12:38.248Z,68.87
2018-03-17T04:15:06.709Z,70.42
2018-03-17T04:17:35.127Z,70.77
2018-03-17T04:20:03.512Z,71.03
2018-03-17T04:22:31.932Z,71.78
2018-03-17T04:25:00.300Z,70.67
2018-03-17T04:27:28.725Z,72.32
2018-03-17T04:29:57.109Z,70.55
2018-03-17T04:32:25.525Z,72.16
2018-03-17T04:34:54.003Z,72.33
2018-03-17T04:37:22.399Z,72.83
2018-03-17T04:39:50.830Z,72.61
2018-03-17T04:42:19.216Z,71.80
2018-03-17T04:44:47.675Z,71.20
2018-03-17T04:47:16.141Z,71.06
2018-03-17T04:49:44.592Z,70.45
2018-03-17T04:52:12.961Z,70.88
2018-03-17T04:54:41.344Z,71.59
2018-03-17T04:57:09.773Z,70.99
2018-03-17T04:59:38.142Z,70.64
2018-03-17T05:02:06.624Z,70.11
2018-03-17T05:04:35.129Z,70.51
2018-03-17T05:07:03.552Z,70.50
2018-03-17T05:09:31.967Z,69.78
2018-03-17T05:12:00.381Z,71.70
2018-03-17T05:14:28.800Z,70.93
2018-03-17T05:16:57.214Z,70.91
2018-03-17T05:19:25.666Z,71.20
2018-03-17T05:21:54.124Z,69.60
2018-03-17T05:24:22.536Z,68.69
2018-03-17T05:26:50.952Z,70.99
2018-03-17T05:29:19.337Z,71.26
2018-03-17T05:31:47.795Z,71.13
2018-03-17T05:34:16.171Z,69.58
2018-03-17T05:36:44.712Z,68.92
2018-03-17T05:39:13.116Z,70.52
2018-03-17T05:41:41.536Z,69.75
2018-03-17T05:44:09.920Z,68.68
2018-03-17T05:46:38.332Z,68.08
2018-03-17T05:49:06.859Z,69.15
2018-03-17T05:51:35.313Z,68.40
2018-03-17T05:54:03.700Z,68.14
2018-03-17T05:56:32.114Z,67.66
2018-03-17T05:59:00.484Z,67.56
2018-03-17T06:01:28.957Z,67.79
2018-03-17T06:03:57.377Z,67.64
2018-03-17T06:06:25.826Z,67.13
2018-03-17T06:08:54.262Z,66.42
2018-03-17T06:11:22.638Z,64.94
2018-03-17T06:13:51.087Z,63.46
2018-03-17T06:16:19.449Z,64.08
2018-03-17T06:18:47.890Z,64.40
2018-03-17T06:21:16.317Z,64.16
2018-03-17T06:23:44.717Z,64.22
2018-03-17T06:26:13.170Z,62.55
2018-03-17T06:28:41.569Z,63.38
2018-03-17T06:31:09.993Z,64.51
2018-03-17T06:33:38.440Z,63.35
2018-03-17T06:36:06.904Z,62.52
2018-03-17T06:38:35.337Z,62.32
2018-03-17T06:41:03.773Z,61.04
2018-03-17T06:43:32.227Z,59.54
2018-03-17T06:46:00.621Z,57.32
2018-03-17T06:48:29.082Z,58.32
2018-03-17T06:50:57.444Z,57.83
2018-03-17T06:53:25.866Z,57.06
2018-03-17T06:55:54.285Z,57.10
2018-03-17T06:58:22.700Z,56.63
2018-03-17T07:00:51.093Z,55.48
2018-03-17T07:03:19.575Z,56.12
2018-03-17T07:05:47.974Z,55.00
2018-03-17T07:08:16.387Z,54.90
2018-03-17T07:10:44.828Z,55.93
2018-03-17T07:13:13.285Z,54.31
2018-03-17T07:15:41.685Z,53.98
2018-03-17T07:18:10.089Z,53.21
2018-03-17T07:20:38.706Z,51.14
2018-03-17T07:23:07.537Z,51.04
2018-03-17T07:25:35.964Z,51.11
2018-03-17T07:28:04.368Z,50.90
2018-03-17T07:30:32.729Z,51.28
2018-03-17T07:33:01.565Z,50.19
2018-03-17T07:35:29.953Z,51.27
2018-03-17T07:37:58.354Z,51.42
2018-03-17T07:40:26.784Z,50.99
2018-03-17T07:42:55.171Z,50.08
2018-03-17T07:45:23.547Z,49.35
2018-03-17T07:47:52.442Z,49.49
2018-03-17T07:50:21.172Z,48.45
2018-03-17T07:52:49.968Z,47.46
2018-03-17T07:55:18.997Z,49.19
2018-03-17T07:57:47.957Z,48.55
2018-03-17T08:00:17.219Z,47.54
2018-03-17T08:02:46.049Z,47.60
2018-03-17T08:05:14.438Z,47.50
2018-03-17T08:07:42.797Z,48.29
2018-03-17T08:10:11.248Z,46.47
2018-03-17T08:12:39.657Z,48.05
2018-03-17T08:15:08.419Z,48.44
2018-03-17T08:17:36.824Z,47.36
2018-03-17T08:20:05.205Z,47.61
2018-03-17T08:22:33.701Z,48.32
2018-03-17T08:25:02.128Z,47.00
2018-03-17T08:27:30.569Z,45.45
2018-03-17T08:29:59.028Z,44.92
2018-03-17T08:32:27.822Z,45.25
2018-03-17T08:34:56.245Z,45.35
2018-03-17T08:37:25.444Z,45.36
2018-03-17T08:39:53.855Z,44.54
2018-03-17T08:42:22.333Z,44.11
2018-03-17T08:44:50.815Z,45.07
2018-03-17T08:47:19.204Z,43.09
2018-03-17T08:49:48.269Z,43.33
2018-03-17T08:52:16.645Z,42.98
2018-03-17T08:54:46.199Z,41.65
2018-03-17T08:57:14.745Z,41.09
2018-03-17T08:59:43.118Z,40.36
2018-03-17T09:02:11.902Z,39.36
2018-03-17T09:04:40.334Z,39.27
2018-03-17T09:07:08.767Z,37.89
2018-03-17T09:09:37.142Z,36.70
2018-03-17T09:12:05.630Z,39.35
2018-03-17T09:14:34.062Z,39.61
2018-03-17T09:17:02.590Z,39.59
2018-03-17T09:19:31.595Z,40.12
2018-03-17T09:22:00.065Z,40.11
2018-03-17T09:24:28.576Z,41.19
2018-03-17T09:26:56.985Z,41.08
2018-03-17T09:29:26.379Z,40.75
2018-03-17T09:31:54.954Z,40.50
2018-03-17T09:34:24.232Z,41.46
2018-03-17T09:36:52.687Z,35.92
2018-03-17T09:39:21.206Z,28.80
2018-03-17T09:41:49.841Z,27.57
2018-03-17T09:44:19.389Z,25.84
2018-03-17T09:46:47.785Z,25.34
2018-03-17T09:49:16.177Z,25.65
2018-03-17T09:51:44.918Z,24.72
2018-03-17T09:54:13.431Z,24.42
2018-03-17T09:56:41.850Z,23.80
2018-03-17T09:59:10.487Z,25.08
2018-03-17T10:01:38.909Z,24.64
2018-03-17T10:04:07.327Z,23.48
2018-03-17T10:06:35.757Z,23.41
2018-03-17T10:09:04.289Z,23.52
2018-03-17T10:11:32.667Z,23.57
2018-03-17T10:14:01.492Z,22.80
2018-03-17T10:16:29.976Z,21.37
2018-03-17T10:18:58.404Z,22.41
2018-03-17T10:21:26.995Z,22.16
2018-03-17T10:23:55.418Z,22.02
2018-03-17T10:26:23.841Z,22.24
2018-03-17T10:28:52.597Z,21.13
2018-03-17T10:31:20.987Z,20.75
2018-03-17T10:33:49.341Z,20.91
2018-03-17T10:36:17.790Z,19.32
2018-03-17T10:38:46.184Z,19.62
2018-03-17T10:41:14.632Z,19.53
2018-03-17T10:43:43.267Z,21.87
2018-03-17T10:46:11.766Z,25.88
2018-03-17T10:48:40.144Z,27.67
2018-03-17T10:51:08.776Z,27.05
2018-03-17T10:53:38.687Z,27.96
2018-03-17T10:56:07.128Z,27.39
2018-03-17T10:58:35.914Z,27.14
2018-03-17T11:01:09.776Z,27.89
2018-03-17T11:03:38.509Z,26.85
2018-03-17T11:06:07.181Z,24.06
2018-03-17T11:08:35.553Z,24.22
2018-03-17T11:11:04.006Z,23.43
2018-03-17T11:13:32.379Z,21.79
2018-03-17T11:16:01.435Z,23.90
2018-03-17T11:18:29.928Z,23.92
2018-03-17T11:20:58.352Z,23.35
2018-03-17T11:23:26.783Z,23.59
2018-03-17T11:25:55.254Z,23.73
2018-03-17T11:28:23.714Z,23.54
2018-03-17T11:30:52.130Z,22.66
2018-03-17T11:33:20.772Z,21.57
2018-03-17T11:35:49.164Z,21.46
2018-03-17T11:38:17.584Z,20.13
2018-03-17T11:40:46.066Z,19.74
2018-03-17T11:43:14.451Z,19.17
2018-03-17T11:45:42.868Z,18.73
2018-03-17T11:48:11.262Z,18.48
2018-03-17T11:50:39.660Z,19.51
2018-03-17T11:53:08.045Z,19.21
2018-03-17T11:55:36.503Z,17.89
2018-03-17T11:58:05.008Z,19.63
2018-03-17T12:00:33.557Z,22.70
2018-03-17T12:03:01.977Z,20.40
2018-03-17T12:05:30.400Z,20.56
2018-03-17T12:07:58.796Z,21.14
2018-03-17T12:10:27.240Z,19.01
2018-03-17T12:12:55.632Z,20.31
2018-03-17T12:15:24.036Z,20.75
2018-03-17T12:17:52.447Z,20.53
2018-03-17T12:20:20.814Z,20.75
2018-03-17T12:22:49.247Z,20.35
2018-03-17T12:25:17.632Z,19.88
2018-03-17T12:27:46.004Z,20.58
2018-03-17T12:30:14.437Z,20.25
2018-03-17T12:32:42.857Z,19.34
2018-03-17T12:35:11.290Z,19.61
2018-03-17T12:37:39.689Z,19.69
2018-03-17T12:40:08.078Z,20.17
2018-03-17T12:42:36.478Z,20.25
2018-03-17T12:45:05.264Z,20.57
2018-03-17T12:47:33.662Z,20.77
2018-03-17T12:50:02.192Z,20.74
2018-03-17T12:52:30.610Z,20.74
2018-03-17T12:54:59.011Z,21.12
2018-03-17T12:57:27.393Z,20.75
2018-03-17T12:59:56.029Z,20.56
2018-03-17T13:02:24.406Z,20.21
2018-03-17T13:04:52.786Z,20.93
2018-03-17T13:07:21.217Z,20.69
2018-03-17T13:09:49.665Z,20.36
2018-03-17T13:12:18.035Z,20.90
2018-03-17T13:14:46.493Z,20.62
2018-03-17T13:17:14.889Z,20.48
2018-03-17T13:19:43.302Z,20.33
2018-03-17T13:22:11.685Z,19.90
2018-03-17T13:24:40.225Z,20.87
2018-03-17T13:27:20.507Z,20.46
2018-03-17T13:29:48.924Z,20.21
2018-03-17T13:32:29.151Z,19.87
2018-03-17T13:34:57.536Z,19.96
2018-03-17T13:37:38.112Z,20.11
2018-03-17T13:40:18.476Z,20.24
2018-03-17T13:42:46.884Z,19.56
2018-03-17T13:45:18.889Z,19.50
2018-03-17T13:47:47.405Z,19.29
2018-03-17T13:50:15.786Z,20.10
2018-03-17T13:52:44.171Z,20.31
2018-03-17T13:55:12.567Z,20.14
2018-03-17T13:57:40.996Z,21.14
2018-03-17T14:00:09.396Z,21.49
2018-03-17T14:02:37.803Z,21.71
2018-03-17T14:05:06.210Z,21.14
2018-03-17T14:07:34.740Z,19.39
2018-03-17T14:10:03.180Z,19.75
2018-03-17T14:12:31.670Z,19.78
2018-03-17T14:15:00.081Z,19.44
2018-03-17T14:17:28.497Z,20.26
2018-03-17T14:19:56.933Z,19.98
2018-03-17T14:22:25.289Z,20.22
2018-03-17T14:24:53.717Z,18.99
2018-03-17T14:27:22.133Z,19.73
2018-03-17T14:29:50.508Z,19.76
2018-03-17T14:32:18.919Z,19.54
2018-03-17T14:34:47.271Z,19.39
2018-03-17T14:37:15.681Z,19.47
2018-03-17T14:39:44.093Z,20.00
2018-03-17T14:42:12.508Z,20.59
2018-03-17T14:44:40.960Z,20.17
2018-03-17T14:47:10.155Z,20.08
2018-03-17T14:49:38.544Z,19.84
2018-03-17T14:52:06.938Z,19.56
2018-03-17T14:54:35.397Z,20.25
2018-03-17T14:57:03.762Z,20.21
2018-03-17T14:59:32.177Z,20.33
2018-03-17T15:02:00.560Z,20.73
2018-03-17T15:04:28.986Z,20.72
2018-03-17T15:06:57.344Z,20.94
2018-03-17T15:09:25.745Z,21.74
2018-03-17T15:11:54.177Z,22.04
2018-03-17T15:14:22.680Z,20.82
2018-03-17T15:16:51.041Z,20.63
2018-03-17T15:19:19.484Z,22.35
2018-03-17T15:21:47.842Z,22.20
2018-03-17T15:24:16.252Z,21.55
2018-03-17T15:26:44.750Z,22.36
2018-03-17T15:29:13.160Z,22.40
2018-03-17T15:31:41.537Z,21.46
2018-03-17T15:34:09.940Z,22.01
2018-03-17T15:36:38.320Z,23.00
2018-03-17T15:39:07.753Z,23.39
2018-03-17T15:41:36.217Z,23.88
2018-03-17T15:44:04.676Z,23.80
2018-03-17T15:46:33.081Z,24.28
2018-03-17T15:49:01.454Z,24.58
2018-03-17T15:51:29.852Z,25.03
2018-03-17T15:53:58.216Z,24.61
2018-03-17T15:56:26.580Z,24.93
2018-03-17T15:58:54.972Z,25.47
2018-03-17T16:01:23.418Z,25.35
2018-03-17T16:03:51.852Z,25.50
2018-03-17T16:06:20.316Z,26.29
2018-03-17T16:08:48.681Z,26.25
2018-03-17T16:11:17.093Z,26.99
2018-03-17T16:13:45.453Z,27.06
2018-03-17T16:16:13.903Z,25.83
2018-03-17T16:18:42.264Z,26.68
2018-03-17T16:21:10.956Z,26.83
2018-03-17T16:23:39.335Z,27.51
2018-03-17T16:26:07.696Z,27.89
2018-03-17T16:28:36.093Z,27.54
2018-03-17T16:31:04.460Z,28.00
2018-03-17T16:33:32.862Z,27.31
2018-03-17T16:36:01.226Z,27.72
2018-03-17T16:38:29.620Z,27.71
2018-03-17T16:40:57.988Z,27.12
2018-03-17T16:43:26.533Z,27.47
2018-03-17T16:45:54.988Z,27.64
2018-03-17T16:48:23.340Z,27.63
2018-03-17T16:50:51.704Z,28.15
2018-03-17T16:53:20.115Z,28.12
2018-03-17T16:55:48.481Z,27.95
2018-03-17T16:58:16.921Z,28.43
2018-03-17T17:00:45.336Z,27.76
2018-03-17T17:03:13.752Z,27.91
2018-03-17T17:05:42.157Z,27.71
2018-03-17T17:08:10.515Z,27.92
2018-03-17T17:10:38.920Z,28.34
2018-03-17T17:13:07.280Z,28.29
2018-03-17T17:15:35.692Z,28.42
2018-03-17T17:18:04.067Z,28.35
2018-03-17T17:20:32.527Z,28.69
2018-03-17T17:23:00.897Z,29.12
2018-03-17T17:25:29.308Z,29.38
2018-03-17T17:27:57.711Z,28.97
2018-03-17T17:30:26.072Z,29.89
2018-03-17T17:32:54.425Z,29.38
2018-03-17T17:35:22.816Z,29.02
2018-03-17T17:37:51.177Z,29.02
2018-03-17T17:40:19.573Z,30.05
2018-03-17T17:42:47.984Z,29.67
2018-03-17T17:45:16.416Z,30.06
2018-03-17T17:47:44.896Z,30.77
2018-03-17T17:50:13.256Z,31.42
2018-03-17T17:52:41.645Z,30.86
2018-03-17T17:55:10.102Z,31.21
2018-03-17T17:57:38.490Z,31.89
2018-03-17T18:00:06.895Z,31.82
2018-03-17T18:02:35.284Z,30.75
2018-03-17T18:05:03.657Z,30.41
2018-03-17T18:07:32.060Z,30.65
2018-03-17T18:10:00.452Z,30.54
2018-03-17T18:12:28.876Z,30.90
2018-03-17T18:14:57.236Z,31.11
2018-03-17T18:17:25.642Z,31.03
2018-03-17T18:19:54.002Z,31.24
2018-03-17T18:22:22.399Z,31.37
2018-03-17T18:24:50.765Z,31.42
2018-03-17T18:27:19.163Z,31.20
2018-03-17T18:29:47.536Z,31.23
2018-03-17T18:32:16.080Z,32.65
2018-03-17T18:34:44.433Z,32.75
2018-03-17T18:37:12.845Z,33.28
2018-03-17T18:39:41.206Z,33.00
2018-03-17T18:42:09.581Z,32.55
2018-03-17T18:44:38.008Z,31.67
2018-03-17T18:47:06.537Z,31.54
2018-03-17T18:49:35.003Z,31.87
2018-03-17T18:52:03.473Z,30.87
2018-03-17T18:54:31.872Z,31.51
2018-03-17T18:57:00.235Z,30.64
2018-03-17T18:59:28.628Z,30.48
2018-03-17T19:01:57.025Z,30.63
2018-03-17T19:04:25.429Z,30.17
2018-03-17T19:06:53.830Z,29.38
2018-03-17T19:09:22.253Z,29.27
2018-03-17T19:11:50.613Z,28.88
2018-03-17T19:14:19.008Z,29.63
2018-03-17T19:16:47.367Z,29.94
2018-03-17T19:19:15.764Z,29.65
2018-03-17T19:21:44.160Z,29.21
2018-03-17T19:24:12.583Z,28.27
2018-03-17T19:26:40.949Z,28.78
2018-03-17T19:29:09.365Z,29.17
2018-03-17T19:31:37.725Z,28.93
2018-03-17T19:34:06.139Z,29.30
2018-03-17T19:36:34.496Z,29.31
2018-03-17T19:39:02.883Z,27.23
2018-03-17T19:41:31.291Z,27.58
2018-03-17T19:43:59.728Z,27.00
2018-03-17T19:46:28.152Z,27.06
2018-03-17T19:48:56.512Z,28.18
2018-03-17T19:51:24.997Z,28.51
2018-03-17T19:53:53.484Z,28.34
2018-03-17T19:56:22.294Z,28.75
2018-03-17T19:58:50.652Z,28.97
2018-03-17T20:01:19.069Z,28.99
2018-03-17T20:03:47.476Z,28.84
2018-03-17T20:06:15.840Z,28.62
2018-03-17T20:08:44.308Z,28.58
2018-03-17T20:11:12.725Z,28.71
2018-03-17T20:13:41.107Z,29.02
2018-03-17T20:16:09.473Z,29.11
2018-03-17T20:18:37.865Z,28.91
2018-03-17T20:21:06.245Z,28.93
2018-03-17T20:23:34.676Z,28.48
2018-03-17T20:26:03.053Z,28.71
2018-03-17T20:28:31.452Z,28.83
2018-03-17T20:30:59.813Z,28.84
2018-03-17T20:33:28.407Z,29.38
2018-03-17T20:35:56.756Z,29.16
2018-03-17T20:38:25.125Z,29.15
2018-03-17T20:40:53.516Z,29.14
2018-03-17T20:43:22.640Z,28.16
2018-03-17T20:45:51.057Z,28.06
2018-03-17T20:48:19.406Z,27.77
2018-03-17T20:50:48.520Z,28.78
2018-03-17T20:53:16.918Z,28.55
2018-03-17T20:55:45.288Z,28.04
2018-03-17T20:58:13.685Z,27.78
2018-03-17T21:00:42.044Z,28.77
2018-03-17T21:03:10.448Z,28.91
2018-03-17T21:05:38.833Z,28.92
2018-03-17T21:08:07.245Z,28.80
2018-03-17T21:10:35.656Z,28.82
2018-03-17T21:13:04.079Z,28.86
2018-03-17T21:15:32.442Z,29.21
2018-03-17T21:18:00.801Z,28.40
2018-03-17T21:20:29.216Z,28.60
2018-03-17T21:22:57.589Z,29.16
2018-03-17T21:25:26.137Z,29.35
2018-03-17T21:27:54.559Z,29.80
2018-03-17T21:30:22.938Z,28.82
2018-03-17T21:32:51.337Z,29.05
2018-03-17T21:35:19.724Z,29.19
2018-03-17T21:37:48.249Z,29.50
2018-03-17T21:40:16.646Z,29.42
2018-03-17T21:42:45.009Z,29.56
2018-03-17T21:45:13.421Z,28.86
2018-03-17T21:47:41.914Z,29.31
2018-03-17T21:50:10.399Z,28.85
2018-03-17T21:52:38.848Z,29.91
2018-03-17T21:55:07.254Z,29.91
2018-03-17T21:57:35.644Z,30.24
2018-03-17T22:00:04.132Z,29.59
2018-03-17T22:02:32.544Z,30.52
2018-03-17T22:05:00.906Z,30.39
2018-03-17T22:07:30.113Z,30.50
2018-03-17T22:09:58.547Z,29.56
2018-03-17T22:12:26.989Z,30.32
2018-03-17T22:14:55.347Z,29.83
2018-03-17T22:17:23.702Z,30.18
2018-03-17T22:19:52.096Z,30.33
2018-03-17T22:22:20.455Z,30.13
2018-03-17T22:24:48.870Z,30.40
2018-03-17T22:27:17.250Z,30.07
2018-03-17T22:29:45.633Z,29.29
2018-03-17T22:32:14.040Z,29.62
2018-03-17T22:34:42.411Z,29.67
2018-03-17T22:37:10.965Z,29.77
2018-03-17T22:39:39.329Z,30.06
2018-03-17T22:42:07.696Z,30.02
2018-03-17T22:44:36.134Z,30.15
2018-03-17T22:47:04.488Z,29.91
2018-03-17T22:49:32.888Z,29.80
2018-03-17T22:52:01.289Z,29.95
2018-03-17T22:54:29.651Z,29.70
2018-03-17T22:56:58.267Z,29.85
2018-03-17T22:59:26.697Z,29.87
2018-03-17T23:01:55.100Z,30.01
2018-03-17T23:04:23.510Z,28.92
2018-03-17T23:06:51.881Z,29.34
2018-03-17T23:09:20.287Z,29.80
2018-03-17T23:11:48.661Z,29.88
2018-03-17T23:14:17.040Z,30.26
2018-03-17T23:16:45.442Z,30.51
2018-03-17T23:19:13.805Z,30.38
2018-03-17T23:21:42.214Z,30.85
2018-03-17T23:24:10.577Z,30.46
2018-03-17T23:26:38.943Z,30.56
2018-03-17T23:29:07.335Z,30.49
2018-03-17T23:31:35.688Z,31.19
2018-03-17T23:34:04.184Z,31.82
2018-03-17T23:36:32.655Z,31.00
2018-03-17T23:39:01.048Z,30.80
2018-03-17T23:41:29.470Z,30.52
2018-03-17T23:43:58.001Z,31.18
2018-03-17T23:46:26.358Z,31.26
2018-03-17T23:48:54.764Z,31.10
2018-03-17T23:51:23.135Z,31.53
2018-03-17T23:53:51.550Z,31.76
2018-03-17T23:56:19.959Z,32.08
2018-03-17T23:58:48.358Z,31.98
